Flight Track Log - Related Links

Times and Time Zones

All times are in EDT time to prevent confusion due to time zone crossing. See the UAL5915 flight status page for this flight to view local times or setup timezone preferences in your user account.

Time Position Orientation Groundspeed Altitude Reporting Facility
EDT Latitude Longitude Course Direction KTS MPH feet Rate Location/Type
Mon 09:09:31 AM 35.0500 -89.9667 360° North 172 198 800  Level KMEM
Mon 09:10:01 AM 35.0833 -89.9667 360° North 174 200 1,900 1,733 Climbing KMEM
Mon 09:11:01 AM 35.1333 -90.0000 331° Northwest 243 280 3,400 2,100 Climbing KMEM
Mon 09:12:01 AM 35.2167 -90.0000 360° North 249 287 6,100 2,550 Climbing KMEM
Mon 09:13:01 AM 35.2833 -90.0167 348° North 248 285 8,500 1,929 Climbing KMEM
Mon 09:14:21 AM 35.3761 -90.0236 357° North 276 318 10,600 1,157 Climbing Memphis Center
Mon 09:15:21 AM 35.4636 -90.0283 357° North 293 337 11,200 1,050 Climbing Memphis Center
Mon 09:16:21 AM 35.5597 -90.0331 358° North 322 371 12,700 1,550 Climbing Memphis Center
Mon 09:17:21 AM 35.6556 -90.0403 356° North 340 391 14,300 1,550 Climbing Memphis Center
Mon 09:18:21 AM 35.7369 -90.0475 356° North 335 386 15,800 1,400 Climbing Memphis Center
Mon 09:19:21 AM 35.8433 -90.0575 356° North 335 386 17,100 1,100 Climbing Memphis Center
Mon 09:20:21 AM 35.9414 -90.0853 347° North 340 391 18,000 950 Climbing Memphis Center
Mon 09:21:21 AM 36.0417 -90.1183 345° North 353 406 19,000 1,000 Climbing Memphis Center
Mon 09:22:21 AM 36.1417 -90.1489 346° North 364 419 20,000 1,000 Climbing Memphis Center
Mon 09:23:21 AM 36.2481 -90.1819 346° North 371 427 21,000 950 Climbing Memphis Center
Mon 09:24:21 AM 36.3525 -90.2153 346° North 382 440 21,900 950 Climbing Memphis Center
Mon 09:25:21 AM 36.4586 -90.2486 346° North 382 440 22,900 1,000 Climbing Memphis Center
Mon 09:26:21 AM 36.5631 -90.2819 346° North 382 440 23,900 1,000 Climbing Memphis Center
Mon 09:27:21 AM 36.6694 -90.3181 345° North 387 445 24,900 1,000 Climbing Memphis Center
Mon 09:28:21 AM 36.7736 -90.3492 347° North 387 445 25,900 955 Climbing Memphis Center
Mon 09:29:58 AM 36.9464 -90.3978 347° North 390 449 27,400 1,019 Climbing Kansas City Center
Mon 09:31:00 AM 37.0511 -90.4314 346° North 388 447 28,600 1,171 Climbing Kansas City Center
Mon 09:32:01 AM 37.1533 -90.4650 345° North 382 440 29,800 1,171 Climbing Kansas City Center
Mon 09:33:03 AM 37.2578 -90.4722 357° North 376 433 31,000 1,113 Climbing Kansas City Center
Mon 09:34:05 AM 37.3569 -90.4767 358° North 377 434 32,100 1,065 Climbing Kansas City Center
Mon 09:35:07 AM 37.4617 -90.4800 359° North 377 434 33,200 919 Climbing Kansas City Center
Mon 09:36:09 AM 37.5867 -90.4853 358° North 374 430 34,000 390 Climbing Kansas City Center
Mon 09:37:10 AM 37.6975 -90.4919 357° North 392 451 34,000  Level Kansas City Center
Mon 09:38:12 AM 37.8147 -90.4972 358° North 413 475 34,000  Level Kansas City Center
Mon 09:39:14 AM 37.9350 -90.5031 358° North 429 494 34,000  Level Kansas City Center
Mon 09:40:16 AM 38.0536 -90.5075 358° North 427 491 34,000  Level Kansas City Center
Mon 09:41:18 AM 38.1711 -90.5128 358° North 423 487 34,000  Level Kansas City Center
Mon 09:42:20 AM 38.3114 -90.5186 358° North 420 483 34,000  Level Kansas City Center
Mon 09:43:22 AM 38.4233 -90.5239 358° North 418 481 34,000  Level Kansas City Center
Mon 09:44:23 AM 38.5419 -90.5300 358° North 422 486 34,000 -98 Level Kansas City Center
Mon 09:45:25 AM 38.6606 -90.5303 360° North 424 488 33,800 -484 Descending Kansas City Center
Mon 09:46:27 AM 38.7797 -90.4908 14° North 438 504 33,000 -387 Descending Kansas City Center
Mon 09:47:29 AM 38.9189 -90.4394 16° North 435 501 33,000  Level Kansas City Center
Mon 09:48:31 AM 39.0244 -90.3986 17° North 433 498 33,000  Level Kansas City Center
Mon 09:49:33 AM 39.1428 -90.3556 16° North 438 504 33,000  Level Kansas City Center
Mon 09:50:35 AM 39.2597 -90.3114 16° North 438 504 33,000  Level Kansas City Center
Mon 09:51:37 AM 39.3772 -90.2678 16° North 439 505 33,000  Level Kansas City Center
Mon 09:52:39 AM 39.5172 -90.2156 16° North 438 504 33,000  Level Kansas City Center
Mon 09:53:41 AM 39.6350 -90.1722 16° North 439 505 33,000  Level Kansas City Center
Mon 09:54:42 AM 39.7450 -90.1303 16° North 438 504 33,000  Level Kansas City Center
Mon 09:55:44 AM 39.8633 -90.0858 16° North 440 506 33,000  Level Kansas City Center
Mon 09:56:04 AM 39.9108 -90.0692 15° North 441 507 33,000  Level Chicago Center
Mon 09:57:05 AM 40.0289 -90.0247 16° North 443 510 33,000  Level Chicago Center
Mon 09:58:07 AM 40.1475 -89.9792 16° North 444 511 33,000  Level Chicago Center
Mon 09:59:09 AM 40.2658 -89.9347 16° North 442 509 33,000  Level Chicago Center
Mon 10:00:11 AM 40.4072 -89.8797 16° North 442 509 33,000  Level Chicago Center
Mon 10:01:13 AM 40.5200 -89.8367 16° North 442 509 33,000  Level Chicago Center
Mon 10:02:15 AM 40.6364 -89.7908 17° North 440 506 33,000  Level Chicago Center
Mon 10:03:17 AM 40.7569 -89.7472 15° North 444 511 33,000 -1,645 Level Chicago Center
Mon 10:04:19 AM 40.8944 -89.6922 17° North 433 498 29,600 -3,339 Descending Chicago Center
Mon 10:05:21 AM 41.0075 -89.6483 16° North 437 503 26,100 -2,488 Descending Chicago Center
Mon 10:06:22 AM 41.0997 -89.5489 39° Northeast 442 509 24,500 -1,610 Descending Chicago Center
Mon 10:07:24 AM 41.1711 -89.4056 56° Northeast 460 529 22,800 -2,226 Descending Chicago Center
Mon 10:08:26 AM 41.2397 -89.2678 56° Northeast 457 526 19,900 -2,758 Descending Chicago Center
Mon 10:09:28 AM 41.3025 -89.1375 57° Northeast 420 483 17,100 -2,855 Descending Chicago Center
Mon 10:10:30 AM 41.3764 -88.9864 57° Northeast 409 471 14,000 -2,468 Descending Chicago Center
Mon 10:11:32 AM 41.4361 -88.8628 57° Northeast 401 461 12,000 -1,452 Descending Chicago Center
Mon 10:12:34 AM 41.4947 -88.7431 57° Northeast 392 451 11,000 -484 Descending Chicago Center
Mon 10:13:36 AM 41.5481 -88.6178 60° Northeast 389 448 11,000  Level Chicago Center
Mon 10:14:38 AM 41.5992 -88.4894 62° Northeast 391 450 11,000  Level Chicago Center
Mon 10:15:40 AM 41.6639 -88.3717 54° Northeast 390 449 11,000  Level Chicago Center
Mon 10:16:42 AM 41.7303 -88.2583 52° Northeast 388 447 11,000 -387 Level Chicago Center
Mon 10:17:44 AM 41.8067 -88.1275 52° Northeast 375 432 10,200 -1,016 Descending Chicago Center
Mon 10:18:46 AM 41.8575 -88.0372 53° Northeast 309 356 8,900 -1,500 Descending Chicago Center
Mon 10:19:12 AM 41.8833 -88.0000 47° Northeast 293 337 8,000 -1,333 Descending Chicago TRACON
Mon 10:20:07 AM 41.8833 -87.9000 90° East 284 327 7,100 -574 Descending Chicago TRACON
Mon 10:21:07 AM 41.8833 -87.8167 90° East 205 236 6,900 -850 Descending Chicago TRACON
Mon 10:22:07 AM 41.8833 -87.7500 90° East 195 224 5,400 -1,450 Descending Chicago TRACON
Mon 10:23:07 AM 41.9333 -87.7167 26° Northeast 189 217 4,000 -1,368 Descending Chicago TRACON
Mon 10:24:01 AM 41.9667 -87.7500 323° Northwest 178 205 2,800 -1,100 Descending Chicago TRACON
Mon 10:25:07 AM 41.9667 -87.8167 270° West 147 169 1,800 -850 Descending Chicago TRACON
Mon 10:26:01 AM 41.9667 -87.8500 270° West 132 152 1,100 -778 Descending Chicago TRACON

Login

Don't have an account? Register now (free) for customized features, flight alerts, and more!